createdAt,value
2023-01-11T00:00:45.600Z,6.55
2023-01-11T00:03:12.443Z,6.55
2023-01-11T00:05:41.169Z,6.53
2023-01-11T00:08:08.594Z,6.53
2023-01-11T00:10:35.775Z,6.50
2023-01-11T00:13:02.614Z,6.48
2023-01-11T00:15:29.650Z,6.49
2023-01-11T00:17:57.550Z,6.45
2023-01-11T00:20:24.558Z,6.44
2023-01-11T00:22:51.493Z,6.47
2023-01-11T00:25:18.306Z,6.47
2023-01-11T00:27:47.129Z,6.43
2023-01-11T00:30:13.988Z,6.40
2023-01-11T00:32:40.691Z,6.40
2023-01-11T00:35:08.204Z,6.40
2023-01-11T00:37:34.978Z,6.42
2023-01-11T00:40:01.825Z,6.42
2023-01-11T00:42:47.536Z,6.42
2023-01-11T00:45:32.947Z,6.40
2023-01-11T00:48:01.069Z,6.39
2023-01-11T00:50:31.921Z,6.37
2023-01-11T00:52:59.156Z,6.43
2023-01-11T00:55:26.550Z,6.41
2023-01-11T00:57:53.800Z,6.43
2023-01-11T01:00:21.513Z,6.45
2023-01-11T01:02:48.897Z,6.46
2023-01-11T01:05:16.316Z,6.50
2023-01-11T01:07:43.241Z,6.53
2023-01-11T01:10:11.039Z,6.54
2023-01-11T01:12:56.265Z,6.55
2023-01-11T01:15:23.464Z,6.57
2023-01-11T01:17:53.918Z,6.58
2023-01-11T01:20:21.363Z,6.60
2023-01-11T01:22:48.508Z,6.59
2023-01-11T01:25:16.019Z,6.54
2023-01-11T01:27:42.757Z,6.57
2023-01-11T01:30:10.276Z,6.56
2023-01-11T01:32:36.974Z,6.58
2023-01-11T01:35:03.757Z,6.58
2023-01-11T01:37:30.482Z,6.55
2023-01-11T01:39:57.188Z,6.54
2023-01-11T01:42:24.440Z,6.55
2023-01-11T01:44:58.650Z,6.51
2023-01-11T01:47:49.979Z,6.51
2023-01-11T01:50:23.580Z,6.50
2023-01-11T01:52:57.010Z,6.55
2023-01-11T01:55:28.066Z,6.57
2023-01-11T01:57:55.653Z,6.58
2023-01-11T02:00:22.388Z,6.59
2023-01-11T02:02:49.460Z,6.59
2023-01-11T02:05:17.415Z,6.59
2023-01-11T02:07:44.803Z,6.57
2023-01-11T02:10:21.919Z,6.53
2023-01-11T02:12:58.212Z,6.55
2023-01-11T02:15:24.919Z,6.58
2023-01-11T02:17:57.127Z,6.53
2023-01-11T02:20:35.132Z,6.47
2023-01-11T02:23:10.092Z,6.53
2023-01-11T02:25:46.064Z,6.47
2023-01-11T02:28:22.007Z,6.51
2023-01-11T02:31:11.579Z,6.43
2023-01-11T02:33:51.142Z,6.53
2023-01-11T02:36:44.370Z,6.52
2023-01-11T02:39:19.967Z,6.47
2023-01-11T02:42:12.717Z,6.49
2023-01-11T02:45:03.146Z,6.52
2023-01-11T02:47:39.873Z,6.51
2023-01-11T02:50:18.794Z,6.53
2023-01-11T02:52:51.426Z,6.57
2023-01-11T02:55:24.591Z,6.56
2023-01-11T02:57:54.682Z,6.58
2023-01-11T03:00:22.196Z,6.55
2023-01-11T03:03:27.795Z,6.46
2023-01-11T03:06:21.503Z,6.47
2023-01-11T03:08:50.950Z,6.35
2023-01-11T03:11:40.538Z,6.45
2023-01-11T03:14:27.925Z,6.46
2023-01-11T03:17:14.339Z,6.51
2023-01-11T03:19:47.956Z,6.49
2023-01-11T03:22:20.675Z,6.50
2023-01-11T03:24:55.605Z,6.49
2023-01-11T03:27:27.975Z,6.55
2023-01-11T03:30:07.825Z,6.50
2023-01-11T03:32:46.539Z,6.49
2023-01-11T03:35:39.735Z,6.48
2023-01-11T03:38:15.399Z,6.51
2023-01-11T03:40:48.234Z,6.51
2023-01-11T03:43:16.572Z,6.53
2023-01-11T03:46:03.693Z,6.49
2023-01-11T03:48:49.230Z,6.48
2023-01-11T03:51:20.952Z,6.54
2023-01-11T03:53:49.382Z,6.55
2023-01-11T03:56:18.684Z,6.55
2023-01-11T03:58:45.511Z,6.57
2023-01-11T04:01:12.580Z,6.52
2023-01-11T04:03:39.311Z,6.51
2023-01-11T04:06:06.206Z,6.57
2023-01-11T04:08:32.922Z,6.58
2023-01-11T04:10:59.758Z,6.57
2023-01-11T04:13:26.458Z,6.59
2023-01-11T04:15:55.084Z,6.58
2023-01-11T04:18:24.714Z,6.58
2023-01-11T04:20:51.395Z,6.59
2023-01-11T04:23:18.214Z,6.57
2023-01-11T04:25:45.050Z,6.60
2023-01-11T04:28:11.730Z,6.60
2023-01-11T04:30:38.477Z,6.61
2023-01-11T04:33:05.179Z,6.72
2023-01-11T04:35:31.883Z,6.74
2023-01-11T04:37:58.708Z,6.67
2023-01-11T04:40:25.724Z,6.67
2023-01-11T04:42:52.480Z,6.63
2023-01-11T04:45:19.297Z,6.63
2023-01-11T04:47:45.998Z,6.62
2023-01-11T04:50:12.976Z,6.63
2023-01-11T04:52:41.491Z,6.59
2023-01-11T04:55:09.100Z,6.59
2023-01-11T04:57:35.837Z,6.59
2023-01-11T05:00:04.964Z,6.60
2023-01-11T05:02:31.708Z,6.60
2023-01-11T05:04:58.364Z,6.59
2023-01-11T05:07:25.076Z,6.57
2023-01-11T05:09:51.762Z,6.59
2023-01-11T05:12:18.585Z,6.60
2023-01-11T05:14:48.052Z,6.59
2023-01-11T05:17:15.420Z,6.59
2023-01-11T05:19:42.387Z,6.61
2023-01-11T05:22:09.579Z,6.61
2023-01-11T05:24:36.291Z,6.61
2023-01-11T05:27:03.605Z,6.62
2023-01-11T05:29:30.372Z,6.57
2023-01-11T05:31:57.149Z,6.59
2023-01-11T05:34:23.886Z,6.62
2023-01-11T05:36:50.548Z,6.64
2023-01-11T05:39:17.209Z,6.61
2023-01-11T05:41:43.983Z,6.61
2023-01-11T05:44:32.323Z,6.59
2023-01-11T05:46:59.560Z,6.60
2023-01-11T05:49:26.305Z,6.61
2023-01-11T05:51:53.006Z,6.61
2023-01-11T05:54:19.676Z,6.63
2023-01-11T05:56:46.394Z,6.62
2023-01-11T05:59:13.070Z,6.64
2023-01-11T06:01:39.853Z,6.64
2023-01-11T06:04:08.305Z,6.63
2023-01-11T06:06:35.024Z,6.63
2023-01-11T06:09:01.701Z,6.61
2023-01-11T06:11:28.551Z,6.61
2023-01-11T06:13:55.260Z,6.63
2023-01-11T06:16:22.405Z,6.60
2023-01-11T06:18:51.002Z,6.58
2023-01-11T06:21:18.620Z,6.60
2023-01-11T06:23:47.437Z,6.57
2023-01-11T06:26:16.699Z,6.58
2023-01-11T06:28:43.969Z,6.62
2023-01-11T06:31:11.033Z,6.61
2023-01-11T06:33:37.837Z,6.62
2023-01-11T06:36:06.797Z,6.62
2023-01-11T06:38:33.578Z,6.64
2023-01-11T06:41:02.257Z,6.66
2023-01-11T06:43:30.066Z,6.67
2023-01-11T06:45:57.093Z,6.64
2023-01-11T06:48:24.205Z,6.63
2023-01-11T06:50:55.974Z,6.63
2023-01-11T06:53:23.656Z,6.61
2023-01-11T06:55:54.936Z,6.58
2023-01-11T06:58:23.491Z,6.62
2023-01-11T07:00:51.877Z,6.65
2023-01-11T07:03:20.448Z,6.66
2023-01-11T07:05:47.484Z,6.63
2023-01-11T07:08:14.233Z,6.63
2023-01-11T07:10:41.636Z,6.64
2023-01-11T07:13:08.286Z,6.64
2023-01-11T07:15:35.109Z,6.66
2023-01-11T07:18:01.939Z,6.68
2023-01-11T07:20:29.000Z,6.68
2023-01-11T07:22:59.798Z,6.66
2023-01-11T07:25:29.930Z,6.67
2023-01-11T07:27:58.265Z,6.68
2023-01-11T07:30:25.670Z,6.70
2023-01-11T07:32:52.342Z,6.71
2023-01-11T07:35:19.056Z,6.74
2023-01-11T07:37:45.907Z,6.73
2023-01-11T07:40:13.223Z,6.72
2023-01-11T07:42:58.471Z,6.72
2023-01-11T07:45:31.484Z,6.72
2023-01-11T07:48:05.739Z,6.74
2023-01-11T07:50:32.474Z,6.77
2023-01-11T07:52:59.363Z,6.78
2023-01-11T07:55:26.046Z,6.79
2023-01-11T07:57:52.776Z,6.80
2023-01-11T08:00:19.822Z,6.83
2023-01-11T08:02:50.419Z,6.81
2023-01-11T08:05:17.184Z,6.84
2023-01-11T08:07:44.025Z,6.83
2023-01-11T08:10:11.176Z,6.86
2023-01-11T08:13:07.056Z,6.81
2023-01-11T08:15:35.782Z,6.87
2023-01-11T08:18:06.558Z,6.87
2023-01-11T08:20:33.225Z,6.92
2023-01-11T08:23:03.628Z,6.93
2023-01-11T08:25:30.459Z,6.95
2023-01-11T08:27:59.703Z,6.95
2023-01-11T08:30:26.512Z,6.96
2023-01-11T08:32:53.220Z,6.96
2023-01-11T08:35:21.792Z,6.96
2023-01-11T08:37:48.434Z,6.96
2023-01-11T08:40:15.052Z,6.95
2023-01-11T08:42:41.693Z,6.95
2023-01-11T08:45:08.622Z,6.98
2023-01-11T08:47:35.450Z,6.99
2023-01-11T08:50:02.129Z,6.99
2023-01-11T08:52:28.943Z,7.00
2023-01-11T08:54:55.585Z,7.02
2023-01-11T08:57:22.295Z,7.02
2023-01-11T08:59:49.175Z,7.05
2023-01-11T09:02:15.878Z,7.05
2023-01-11T09:04:42.509Z,7.06
2023-01-11T09:07:09.243Z,7.07
2023-01-11T09:09:36.069Z,7.05
2023-01-11T09:12:05.870Z,7.06
2023-01-11T09:14:32.699Z,7.07
2023-01-11T09:16:59.460Z,7.08
2023-01-11T09:19:26.169Z,7.07
2023-01-11T09:21:53.395Z,7.08
2023-01-11T09:24:20.176Z,7.09
2023-01-11T09:26:46.977Z,7.10
2023-01-11T09:29:14.009Z,7.10
2023-01-11T09:31:40.999Z,7.11
2023-01-11T09:34:10.873Z,7.11
2023-01-11T09:36:39.837Z,7.10
2023-01-11T09:39:12.778Z,7.09
2023-01-11T09:42:26.968Z,7.03
2023-01-11T09:44:57.213Z,7.08
2023-01-11T09:47:36.808Z,7.06
2023-01-11T09:50:13.649Z,7.10
2023-01-11T09:52:43.790Z,7.11
2023-01-11T09:55:15.419Z,7.11
2023-01-11T09:57:54.144Z,7.07
2023-01-11T10:00:28.797Z,7.11
2023-01-11T10:03:14.206Z,7.16
2023-01-11T10:05:56.463Z,7.19
2023-01-11T10:18:40.973Z,7.22
2023-01-11T10:18:53.510Z,7.28
2023-01-11T10:21:29.146Z,7.29
2023-01-11T10:24:02.649Z,7.34
2023-01-11T10:26:36.163Z,7.37
2023-01-11T10:29:20.787Z,7.38
2023-01-11T10:32:02.426Z,7.37
2023-01-11T10:34:56.706Z,7.39
2023-01-11T10:37:59.813Z,7.43
2023-01-11T10:40:38.993Z,7.44
2023-01-11T10:43:21.686Z,7.41
2023-01-11T10:45:51.821Z,7.47
2023-01-11T10:48:28.708Z,7.45
2023-01-11T10:51:32.212Z,7.43
2023-01-11T10:54:18.048Z,7.42
2023-01-11T10:57:13.972Z,7.45
2023-01-11T11:00:09.199Z,7.47
2023-01-11T11:03:09.969Z,7.47
2023-01-11T11:05:53.032Z,7.52
2023-01-11T11:08:33.126Z,7.51
2023-01-11T11:11:03.538Z,7.57
2023-01-11T11:13:55.019Z,7.55
2023-01-11T11:16:24.476Z,7.60
2023-01-11T11:18:52.572Z,7.63
2023-01-11T11:21:28.516Z,7.61
2023-01-11T11:23:59.310Z,7.64
2023-01-11T11:26:30.412Z,7.66
2023-01-11T11:29:02.737Z,7.67
2023-01-11T11:31:30.642Z,7.71
2023-01-11T11:33:57.884Z,7.71
2023-01-11T11:36:24.807Z,7.73
2023-01-11T11:39:08.744Z,7.71
2023-01-11T11:41:52.820Z,7.67
2023-01-11T11:44:25.550Z,7.72
2023-01-11T11:46:58.353Z,7.71
2023-01-11T11:49:25.585Z,7.75
2023-01-11T11:51:52.641Z,7.76
2023-01-11T11:54:27.173Z,7.75
2023-01-11T11:56:54.882Z,7.73
2023-01-11T11:59:23.018Z,7.74
2023-01-11T12:02:01.310Z,7.70
2023-01-11T12:04:34.865Z,7.74
2023-01-11T12:07:08.100Z,7.76
2023-01-11T12:09:35.008Z,7.66
2023-01-11T12:12:01.947Z,7.75
2023-01-11T12:14:35.047Z,7.78
2023-01-11T12:17:22.728Z,7.77
2023-01-11T12:19:49.407Z,7.87
2023-01-11T12:22:21.330Z,7.91
2023-01-11T12:25:07.803Z,7.95
2023-01-11T12:27:46.267Z,7.97
2023-01-11T12:30:37.725Z,7.99
2023-01-11T12:33:28.872Z,8.06
2023-01-11T12:36:13.648Z,8.14
2023-01-11T12:38:57.169Z,8.12
2023-01-11T12:41:47.421Z,8.19
2023-01-11T12:44:26.736Z,8.22
2023-01-11T12:47:04.019Z,8.22
2023-01-11T12:49:33.624Z,8.30
2023-01-11T12:52:20.083Z,8.33
2023-01-11T12:55:05.133Z,8.36
2023-01-11T12:57:41.649Z,8.35
2023-01-11T13:00:12.095Z,8.39
2023-01-11T13:02:57.509Z,8.36
2023-01-11T13:05:47.680Z,8.42
2023-01-11T13:08:36.053Z,8.37
2023-01-11T13:11:35.179Z,8.43
2023-01-11T13:14:14.344Z,8.42
2023-01-11T13:17:07.126Z,8.39
2023-01-11T13:19:45.636Z,8.43
2023-01-11T13:22:16.560Z,8.46
2023-01-11T13:24:46.832Z,8.46
2023-01-11T13:27:17.729Z,8.46
2023-01-11T13:29:46.920Z,8.47
2023-01-11T13:32:16.380Z,8.48
2023-01-11T13:34:47.711Z,8.48
2023-01-11T13:37:19.854Z,8.50
2023-01-11T13:40:12.735Z,8.51
2023-01-11T13:42:46.824Z,8.49
2023-01-11T13:45:19.724Z,8.52
2023-01-11T13:47:56.983Z,8.50
2023-01-11T13:50:25.221Z,8.54
2023-01-11T13:52:54.621Z,8.53
2023-01-11T13:55:28.194Z,8.51
2023-01-11T13:58:11.222Z,8.48
2023-01-11T14:00:45.535Z,8.45
2023-01-11T14:03:41.317Z,8.41
2023-01-11T14:06:42.403Z,8.41
2023-01-11T14:09:18.002Z,8.47
2023-01-11T14:11:54.954Z,8.44
2023-01-11T14:14:55.550Z,8.42
2023-01-11T14:17:52.635Z,8.41
2023-01-11T14:20:42.105Z,8.41
2023-01-11T14:23:15.199Z,8.44
2023-01-11T14:25:47.838Z,8.46
2023-01-11T14:28:36.507Z,8.40
2023-01-11T14:31:12.519Z,8.45
2023-01-11T14:34:13.451Z,8.40
2023-01-11T14:37:07.723Z,8.45
2023-01-11T14:39:47.112Z,8.45
2023-01-11T14:42:32.160Z,8.46
2023-01-11T14:45:04.000Z,8.49
2023-01-11T14:47:45.487Z,8.45
2023-01-11T14:50:27.011Z,8.51
2023-01-11T14:52:57.563Z,8.50
2023-01-11T14:55:37.250Z,8.51
2023-01-11T14:58:05.241Z,8.55
2023-01-11T15:00:31.826Z,8.55
2023-01-11T15:03:01.372Z,8.51
2023-01-11T15:05:31.293Z,8.54
2023-01-11T15:08:21.745Z,8.47
2023-01-11T15:11:06.106Z,8.47
2023-01-11T15:13:46.472Z,8.48
2023-01-11T15:16:45.806Z,8.47
2023-01-11T15:19:49.030Z,8.43
2023-01-11T15:22:31.611Z,8.46
2023-01-11T15:25:01.391Z,8.52
2023-01-11T15:27:33.621Z,8.52
2023-01-11T15:30:00.926Z,8.53
2023-01-11T15:32:28.885Z,8.54
2023-01-11T15:35:16.049Z,8.48
2023-01-11T15:37:50.555Z,8.52
2023-01-11T15:40:26.268Z,8.53
2023-01-11T15:43:08.388Z,8.50
2023-01-11T15:46:03.690Z,8.55
2023-01-11T15:48:51.235Z,8.51
2023-01-11T15:51:26.758Z,8.50
2023-01-11T15:54:10.649Z,8.52
2023-01-11T15:57:23.062Z,8.52
2023-01-11T16:00:21.673Z,8.47
2023-01-11T16:02:57.094Z,8.55
2023-01-11T16:05:27.875Z,8.55
2023-01-11T16:08:06.295Z,8.56
2023-01-11T16:10:48.791Z,8.51
2023-01-11T16:13:44.629Z,8.55
2023-01-11T16:16:17.805Z,8.55
2023-01-11T16:18:45.502Z,8.44
2023-01-11T16:21:21.398Z,8.52
2023-01-11T16:23:48.839Z,8.58
2023-01-11T16:26:17.485Z,8.58
2023-01-11T16:28:49.597Z,8.57
2023-01-11T16:31:16.334Z,8.76
2023-01-11T16:33:43.148Z,8.80
2023-01-11T16:36:23.923Z,8.73
2023-01-11T16:39:05.996Z,8.64
2023-01-11T16:41:41.186Z,8.64
2023-01-11T16:44:09.047Z,8.65
2023-01-11T16:47:02.389Z,8.57
2023-01-11T16:49:29.141Z,8.63
2023-01-11T16:51:57.607Z,8.64
2023-01-11T16:54:27.310Z,8.62
2023-01-11T16:56:54.582Z,8.61
2023-01-11T16:59:24.550Z,8.61
2023-01-11T17:01:58.630Z,8.60
2023-01-11T17:04:33.318Z,8.57
2023-01-11T17:07:18.529Z,8.55
2023-01-11T17:09:45.370Z,8.60
2023-01-11T17:12:38.385Z,8.52
2023-01-11T17:15:23.196Z,8.48
2023-01-11T17:17:50.486Z,8.57
2023-01-11T17:20:20.390Z,8.58
2023-01-11T17:22:49.585Z,8.59
2023-01-11T17:25:41.038Z,8.52
2023-01-11T17:28:19.114Z,8.54
2023-01-11T17:30:47.610Z,8.59
2023-01-11T17:33:32.737Z,8.53
2023-01-11T17:36:00.057Z,8.56
2023-01-11T17:38:27.951Z,8.57
2023-01-11T17:40:58.505Z,8.55
2023-01-11T17:43:45.594Z,8.55
2023-01-11T17:46:20.845Z,8.51
2023-01-11T17:48:58.613Z,8.50
2023-01-11T17:51:33.901Z,8.49
2023-01-11T17:54:00.648Z,8.54
2023-01-11T17:56:38.436Z,8.51
2023-01-11T17:59:11.101Z,8.53
2023-01-11T18:01:37.844Z,8.52
2023-01-11T18:04:04.695Z,8.53
2023-01-11T18:06:37.047Z,8.52
2023-01-11T18:09:06.031Z,8.52
2023-01-11T18:11:35.017Z,8.48
2023-01-11T18:14:07.706Z,8.45
2023-01-11T18:16:34.521Z,8.43
2023-01-11T18:19:01.318Z,8.42
2023-01-11T18:21:41.088Z,8.41
2023-01-11T18:24:14.379Z,8.39
2023-01-11T18:26:42.487Z,8.42
2023-01-11T18:29:20.009Z,8.37
2023-01-11T18:31:46.735Z,8.43
2023-01-11T18:34:13.403Z,8.46
2023-01-11T18:36:40.183Z,8.45
2023-01-11T18:39:12.761Z,8.46
2023-01-11T18:41:58.365Z,8.47
2023-01-11T18:44:25.178Z,8.47
2023-01-11T18:46:51.867Z,8.46
2023-01-11T18:49:18.574Z,8.46
2023-01-11T18:51:45.329Z,8.47
2023-01-11T18:54:16.425Z,8.46
2023-01-11T18:56:43.199Z,8.46
2023-01-11T18:59:09.977Z,8.47
2023-01-11T19:01:52.596Z,8.47
2023-01-11T19:04:24.295Z,8.45
2023-01-11T19:06:52.267Z,8.40
2023-01-11T19:09:19.037Z,8.43
2023-01-11T19:11:45.791Z,8.44
2023-01-11T19:14:12.589Z,8.42
2023-01-11T19:16:39.339Z,8.41
2023-01-11T19:19:06.248Z,8.40
2023-01-11T19:21:32.939Z,8.40
2023-01-11T19:23:59.658Z,8.39
2023-01-11T19:26:27.684Z,8.37
2023-01-11T19:28:54.443Z,8.37
2023-01-11T19:31:21.244Z,8.35
2023-01-11T19:33:48.253Z,8.29
2023-01-11T19:36:14.924Z,8.26
2023-01-11T19:38:41.666Z,8.27
2023-01-11T19:41:09.449Z,8.27
2023-01-11T19:43:36.618Z,8.23
2023-01-11T19:46:03.973Z,8.14
2023-01-11T19:48:34.564Z,8.16
2023-01-11T19:51:07.678Z,8.11
2023-01-11T19:53:34.939Z,8.14
2023-01-11T19:56:06.657Z,8.16
2023-01-11T19:58:35.557Z,8.15
2023-01-11T20:01:09.670Z,8.09
2023-01-11T20:03:36.959Z,8.10
2023-01-11T20:06:09.039Z,8.10
2023-01-11T20:08:40.994Z,8.14
2023-01-11T20:11:09.774Z,8.09
2023-01-11T20:13:36.615Z,8.06
2023-01-11T20:16:11.988Z,7.94
2023-01-11T20:18:39.363Z,7.95
2023-01-11T20:21:10.362Z,7.94
2023-01-11T20:23:37.255Z,7.93
2023-01-11T20:26:05.933Z,7.97
2023-01-11T20:28:33.666Z,7.95
2023-01-11T20:31:02.272Z,8.00
2023-01-11T20:33:29.237Z,8.05
2023-01-11T20:35:55.908Z,8.09
2023-01-11T20:38:22.664Z,8.13
2023-01-11T20:40:49.489Z,8.16
2023-01-11T20:43:17.395Z,8.18
2023-01-11T20:45:44.280Z,8.21
2023-01-11T20:48:11.153Z,8.23
2023-01-11T20:50:37.868Z,8.24
2023-01-11T20:53:04.545Z,8.24
2023-01-11T20:55:31.321Z,8.24
2023-01-11T20:57:58.436Z,8.24
2023-01-11T21:00:25.370Z,8.25
2023-01-11T21:02:52.180Z,8.26
2023-01-11T21:05:18.975Z,8.24
2023-01-11T21:07:46.840Z,8.24
2023-01-11T21:10:13.627Z,8.23
2023-01-11T21:12:40.419Z,8.22
2023-01-11T21:15:10.471Z,8.21
2023-01-11T21:17:37.727Z,8.21
2023-01-11T21:20:05.280Z,8.17
2023-01-11T21:22:32.082Z,8.19
2023-01-11T21:24:58.823Z,8.16
2023-01-11T21:27:25.785Z,8.16
2023-01-11T21:29:52.426Z,8.09
2023-01-11T21:32:19.091Z,8.08
2023-01-11T21:34:45.781Z,8.05
2023-01-11T21:37:12.499Z,8.01
2023-01-11T21:39:39.224Z,7.94
2023-01-11T21:42:06.073Z,7.91
2023-01-11T21:44:33.917Z,7.93
2023-01-11T21:47:02.099Z,7.93
2023-01-11T21:49:29.022Z,7.98
2023-01-11T21:51:55.805Z,7.99
2023-01-11T21:54:22.647Z,8.02
2023-01-11T21:56:49.932Z,8.07
2023-01-11T21:59:16.910Z,8.08
2023-01-11T22:01:46.119Z,8.06
2023-01-11T22:04:14.570Z,8.10
2023-01-11T22:06:43.347Z,8.10
2023-01-11T22:09:11.360Z,8.09
2023-01-11T22:11:38.667Z,8.02
2023-01-11T22:14:06.575Z,8.05
2023-01-11T22:16:33.782Z,8.08
2023-01-11T22:19:01.491Z,8.08
2023-01-11T22:21:28.550Z,8.02
2023-01-11T22:23:56.971Z,7.97
2023-01-11T22:26:24.059Z,7.93
2023-01-11T22:29:14.144Z,7.91
2023-01-11T22:31:50.766Z,7.92
2023-01-11T22:34:18.116Z,7.94
2023-01-11T22:36:45.543Z,7.96
2023-01-11T22:39:13.535Z,7.94
2023-01-11T22:41:40.518Z,7.91
2023-01-11T22:44:07.978Z,7.84
2023-01-11T22:46:34.746Z,7.85
2023-01-11T22:49:01.612Z,7.83
2023-01-11T22:51:28.495Z,7.83
2023-01-11T22:53:55.694Z,7.87
2023-01-11T22:56:25.627Z,7.86
2023-01-11T22:58:56.673Z,7.86
2023-01-11T23:01:28.709Z,7.86
2023-01-11T23:03:56.202Z,7.90
2023-01-11T23:06:25.613Z,7.89
2023-01-11T23:08:52.594Z,7.89
2023-01-11T23:11:40.347Z,7.90
2023-01-11T23:14:09.571Z,7.93
2023-01-11T23:16:36.663Z,7.97
2023-01-11T23:19:04.783Z,7.98
2023-01-11T23:21:31.754Z,7.97
2023-01-11T23:24:00.567Z,7.98
2023-01-11T23:26:27.534Z,7.97
2023-01-11T23:28:54.203Z,7.97
2023-01-11T23:31:23.078Z,8.00
2023-01-11T23:33:52.179Z,8.00
2023-01-11T23:36:20.557Z,7.98
2023-01-11T23:38:47.935Z,7.91
2023-01-11T23:41:35.506Z,7.85
2023-01-11T23:44:04.826Z,7.93
2023-01-11T23:46:50.356Z,7.95
2023-01-11T23:49:17.896Z,7.94
2023-01-11T23:51:44.664Z,7.96
2023-01-11T23:54:11.682Z,7.96
2023-01-11T23:56:38.833Z,7.96
2023-01-11T23:59:06.795Z,7.99
